createdAt,value
2022-12-31T00:01:52.161Z,71.20
2022-12-31T00:04:19.080Z,71.20
2022-12-31T00:06:47.177Z,71.20
2022-12-31T00:09:14.021Z,71.20
2022-12-31T00:11:40.973Z,71.10
2022-12-31T00:14:07.802Z,71.20
2022-12-31T00:16:37.912Z,71.20
2022-12-31T00:19:06.767Z,71.30
2022-12-31T00:21:34.910Z,71.30
2022-12-31T00:24:02.914Z,71.30
2022-12-31T00:26:32.723Z,71.30
2022-12-31T00:29:00.845Z,71.30
2022-12-31T00:31:36.667Z,71.30
2022-12-31T00:34:04.369Z,71.40
2022-12-31T00:36:34.770Z,71.40
2022-12-31T00:39:03.057Z,71.50
2022-12-31T00:41:30.449Z,71.60
2022-12-31T00:43:57.549Z,71.50
2022-12-31T00:46:25.261Z,71.50
2022-12-31T00:48:53.140Z,71.60
2022-12-31T00:51:24.324Z,71.50
2022-12-31T00:53:51.368Z,71.40
2022-12-31T00:56:21.860Z,71.50
2022-12-31T00:58:49.583Z,71.50
2022-12-31T01:01:22.921Z,71.50
2022-12-31T01:03:52.140Z,71.40
2022-12-31T01:06:20.090Z,71.40
2022-12-31T01:08:49.333Z,71.30
2022-12-31T01:11:19.658Z,71.30
2022-12-31T01:13:47.719Z,71.30
2022-12-31T01:16:15.498Z,71.30
2022-12-31T01:18:42.359Z,71.40
2022-12-31T01:21:14.841Z,71.30
2022-12-31T01:23:42.318Z,71.30
2022-12-31T01:26:11.281Z,71.30
2022-12-31T01:28:38.173Z,71.40
2022-12-31T01:31:15.238Z,71.40
2022-12-31T01:33:42.732Z,71.50
2022-12-31T01:36:23.367Z,71.40
2022-12-31T01:38:53.264Z,71.40
2022-12-31T01:41:24.305Z,71.30
2022-12-31T01:43:56.935Z,71.40
2022-12-31T01:46:44.019Z,71.40
2022-12-31T01:49:13.896Z,71.30
2022-12-31T01:51:43.716Z,71.10
2022-12-31T01:54:15.145Z,71.00
2022-12-31T01:56:44.273Z,70.90
2022-12-31T01:59:13.158Z,70.70
2022-12-31T02:01:40.141Z,70.70
2022-12-31T02:04:11.175Z,70.60
2022-12-31T02:06:43.001Z,70.60
2022-12-31T02:09:12.131Z,70.50
2022-12-31T02:11:38.995Z,70.60
2022-12-31T02:14:13.844Z,70.60
2022-12-31T02:16:59.094Z,70.70
2022-12-31T02:19:41.289Z,70.60
2022-12-31T02:22:29.246Z,70.60
2022-12-31T02:25:41.050Z,70.60
2022-12-31T02:28:36.856Z,70.50
2022-12-31T02:31:16.869Z,70.40
2022-12-31T02:34:02.669Z,70.50
2022-12-31T02:36:36.184Z,70.60
2022-12-31T02:39:06.140Z,70.70
2022-12-31T02:41:51.799Z,70.80
2022-12-31T02:44:26.354Z,70.80
2022-12-31T02:47:08.541Z,70.60
2022-12-31T02:50:12.867Z,70.60
2022-12-31T02:53:03.693Z,70.50
2022-12-31T02:55:59.055Z,70.50
2022-12-31T02:58:54.112Z,70.40
2022-12-31T03:01:46.978Z,70.40
2022-12-31T03:04:33.666Z,70.40
2022-12-31T03:07:05.807Z,70.40
2022-12-31T03:09:33.069Z,70.30
2022-12-31T03:12:19.381Z,70.40
2022-12-31T03:14:46.471Z,70.50
2022-12-31T03:17:13.631Z,70.60
2022-12-31T03:19:58.920Z,70.70
2022-12-31T03:22:28.849Z,70.80
2022-12-31T03:25:19.544Z,70.80
2022-12-31T03:27:47.569Z,70.90
2022-12-31T03:30:16.770Z,71.00
2022-12-31T03:32:45.354Z,71.10
2022-12-31T03:35:13.801Z,71.30
2022-12-31T03:37:41.734Z,71.30
2022-12-31T03:40:11.147Z,71.30
2022-12-31T03:42:38.170Z,71.30
2022-12-31T03:45:05.844Z,71.30
2022-12-31T03:47:32.743Z,71.20
2022-12-31T03:49:59.640Z,71.10
2022-12-31T03:52:26.468Z,71.10
2022-12-31T03:54:53.347Z,71.10
2022-12-31T03:57:20.198Z,71.20
2022-12-31T03:59:47.112Z,71.30
2022-12-31T04:02:14.125Z,71.30
2022-12-31T04:04:41.047Z,71.40
2022-12-31T04:07:08.061Z,71.50
2022-12-31T04:09:35.083Z,71.50
2022-12-31T04:12:01.943Z,71.60
2022-12-31T04:14:28.831Z,71.60
2022-12-31T04:16:55.703Z,71.80
2022-12-31T04:19:22.615Z,71.80
2022-12-31T04:21:49.464Z,71.60
2022-12-31T04:24:16.407Z,71.40
2022-12-31T04:26:44.108Z,71.30
2022-12-31T04:29:11.495Z,71.10
2022-12-31T04:31:38.477Z,70.80
2022-12-31T04:34:05.447Z,70.70
2022-12-31T04:36:32.644Z,70.70
2022-12-31T04:38:59.681Z,70.60
2022-12-31T04:41:27.194Z,70.70
2022-12-31T04:43:56.108Z,70.80
2022-12-31T04:46:31.892Z,70.80
2022-12-31T04:48:59.363Z,70.90
2022-12-31T04:51:28.365Z,71.10
2022-12-31T04:53:55.550Z,71.10
2022-12-31T04:56:22.995Z,71.30
2022-12-31T04:58:49.995Z,71.50
2022-12-31T05:01:17.083Z,71.60
2022-12-31T05:03:44.047Z,71.50
2022-12-31T05:06:20.070Z,71.50
2022-12-31T05:08:47.392Z,71.60
2022-12-31T05:11:14.617Z,71.80
2022-12-31T05:13:42.126Z,71.90
2022-12-31T05:16:09.894Z,72.10
2022-12-31T05:18:37.386Z,72.10
2022-12-31T05:21:04.553Z,72.10
2022-12-31T05:23:31.401Z,72.10
2022-12-31T05:25:59.737Z,72.10
2022-12-31T05:28:26.701Z,72.20
2022-12-31T05:30:53.826Z,72.10
2022-12-31T05:33:21.349Z,72.10
2022-12-31T05:35:48.221Z,72.10
2022-12-31T05:38:15.093Z,72.10
2022-12-31T05:40:41.899Z,71.90
2022-12-31T05:43:08.814Z,71.70
2022-12-31T05:45:35.651Z,71.50
2022-12-31T05:48:02.556Z,71.50
2022-12-31T05:50:29.554Z,71.70
2022-12-31T05:52:56.508Z,71.70
2022-12-31T05:55:23.780Z,71.90
2022-12-31T05:57:50.676Z,71.80
2022-12-31T06:00:17.721Z,71.80
2022-12-31T06:02:44.570Z,71.80
2022-12-31T06:05:12.347Z,71.70
2022-12-31T06:07:39.226Z,71.60
2022-12-31T06:10:06.713Z,71.50
2022-12-31T06:12:33.684Z,71.60
2022-12-31T06:15:00.618Z,71.70
2022-12-31T06:17:27.488Z,71.70
2022-12-31T06:19:54.399Z,71.70
2022-12-31T06:22:21.210Z,71.80
2022-12-31T06:24:48.045Z,71.90
2022-12-31T06:27:14.929Z,72.00
2022-12-31T06:29:41.880Z,72.10
2022-12-31T06:32:08.788Z,72.10
2022-12-31T06:34:35.800Z,72.20
2022-12-31T06:37:02.692Z,72.20
2022-12-31T06:39:29.578Z,72.20
2022-12-31T06:41:56.479Z,72.20
2022-12-31T06:44:23.374Z,72.20
2022-12-31T06:46:51.050Z,72.20
2022-12-31T06:49:18.074Z,72.10
2022-12-31T06:51:46.229Z,72.30
2022-12-31T06:54:13.723Z,72.40
2022-12-31T06:56:41.656Z,72.40
2022-12-31T06:59:25.994Z,72.40
2022-12-31T07:02:05.414Z,72.20
2022-12-31T07:05:07.799Z,72.10
2022-12-31T07:07:50.190Z,71.90
2022-12-31T07:10:30.722Z,71.70
2022-12-31T07:13:10.559Z,71.50
2022-12-31T07:16:10.373Z,71.50
2022-12-31T07:18:47.811Z,71.60
2022-12-31T07:21:19.219Z,71.80
2022-12-31T07:23:46.383Z,71.80
2022-12-31T07:26:56.131Z,71.90
2022-12-31T07:29:56.342Z,72.00
2022-12-31T07:32:43.519Z,72.10
2022-12-31T07:35:45.082Z,72.20
2022-12-31T07:38:17.719Z,72.20
2022-12-31T07:41:09.398Z,72.20
2022-12-31T07:43:50.203Z,72.20
2022-12-31T07:46:17.011Z,72.10
2022-12-31T07:48:44.105Z,72.20
2022-12-31T07:51:11.899Z,72.10
2022-12-31T07:53:38.976Z,72.20
2022-12-31T07:56:08.374Z,72.30
2022-12-31T07:58:56.383Z,72.20
2022-12-31T08:01:35.918Z,72.30
2022-12-31T08:04:18.601Z,72.50
2022-12-31T08:07:08.868Z,72.50
2022-12-31T08:09:41.743Z,72.50
2022-12-31T08:12:09.309Z,72.40
2022-12-31T08:14:44.321Z,72.60
2022-12-31T08:17:19.470Z,72.70
2022-12-31T08:19:46.936Z,72.60
2022-12-31T08:22:28.629Z,72.70
2022-12-31T08:25:08.925Z,72.70
2022-12-31T08:28:07.654Z,72.70
2022-12-31T08:31:14.042Z,72.80
2022-12-31T08:33:57.546Z,72.80
2022-12-31T08:36:41.708Z,72.80
2022-12-31T08:39:17.347Z,72.80
2022-12-31T08:41:51.732Z,72.80
2022-12-31T08:44:40.308Z,72.60
2022-12-31T08:47:17.174Z,72.60
2022-12-31T08:49:44.210Z,72.50
2022-12-31T08:52:16.573Z,72.50
2022-12-31T08:54:43.695Z,72.50
2022-12-31T08:57:29.187Z,72.50
2022-12-31T09:00:15.917Z,72.60
2022-12-31T09:03:16.233Z,72.60
2022-12-31T09:05:58.896Z,72.70
2022-12-31T09:08:28.504Z,72.60
2022-12-31T09:11:07.927Z,72.50
2022-12-31T09:13:56.223Z,72.40
2022-12-31T09:16:41.598Z,72.40
2022-12-31T09:19:10.292Z,72.60
2022-12-31T09:21:38.250Z,72.50
2022-12-31T09:24:09.354Z,72.60
2022-12-31T09:26:52.029Z,72.70
2022-12-31T09:29:47.858Z,72.80
2022-12-31T09:32:34.015Z,72.90
2022-12-31T09:35:11.777Z,73.00
2022-12-31T09:38:11.596Z,73.00
2022-12-31T09:40:57.458Z,73.00
2022-12-31T09:43:45.885Z,73.10
2022-12-31T09:46:38.663Z,73.30
2022-12-31T09:49:30.220Z,73.20
2022-12-31T09:52:24.846Z,73.20
2022-12-31T09:55:29.887Z,73.20
2022-12-31T09:58:31.445Z,73.10
2022-12-31T10:01:08.995Z,73.00
2022-12-31T10:04:00.801Z,73.00
2022-12-31T10:06:52.336Z,73.10
2022-12-31T10:09:45.195Z,73.20
2022-12-31T10:12:24.046Z,73.20
2022-12-31T10:15:09.458Z,73.10
2022-12-31T10:17:36.255Z,73.00
2022-12-31T10:20:15.253Z,72.90
2022-12-31T10:22:51.298Z,72.90
2022-12-31T10:25:38.623Z,72.90
2022-12-31T10:28:21.578Z,73.00
2022-12-31T10:31:30.931Z,72.90
2022-12-31T10:34:13.686Z,72.90
2022-12-31T10:37:03.397Z,72.80
2022-12-31T10:39:39.235Z,72.70
2022-12-31T10:42:14.770Z,72.70
2022-12-31T10:44:56.047Z,72.60
2022-12-31T10:47:41.829Z,72.70
2022-12-31T10:50:44.449Z,72.70
2022-12-31T10:53:18.297Z,72.40
2022-12-31T10:55:44.977Z,72.30
2022-12-31T10:58:48.532Z,72.30
2022-12-31T11:01:30.693Z,72.10
2022-12-31T11:04:55.806Z,71.90
2022-12-31T11:07:44.163Z,71.80
2022-12-31T11:10:31.561Z,71.70
2022-12-31T11:13:19.624Z,71.60
2022-12-31T11:16:15.406Z,71.80
2022-12-31T11:19:05.366Z,71.90
2022-12-31T11:21:53.377Z,71.90
2022-12-31T11:24:31.635Z,71.80
2022-12-31T11:27:27.600Z,71.90
2022-12-31T11:30:12.890Z,71.80
2022-12-31T11:33:18.382Z,71.80
2022-12-31T11:36:15.477Z,71.70
2022-12-31T11:38:53.619Z,71.60
2022-12-31T11:41:34.840Z,71.30
2022-12-31T11:44:21.929Z,71.30
2022-12-31T11:47:25.902Z,71.30
2022-12-31T11:50:37.765Z,71.10
2022-12-31T11:53:24.058Z,71.40
2022-12-31T11:56:08.352Z,71.40
2022-12-31T11:58:35.357Z,71.40
2022-12-31T12:01:14.020Z,72.00
2022-12-31T12:03:43.758Z,72.20
2022-12-31T12:06:13.778Z,71.60
2022-12-31T12:08:41.555Z,71.30
2022-12-31T12:11:24.474Z,70.70
2022-12-31T12:13:51.884Z,70.20
2022-12-31T12:16:21.946Z,69.90
2022-12-31T12:18:51.688Z,69.40
2022-12-31T12:21:24.078Z,69.20
2022-12-31T12:23:59.225Z,69.20
2022-12-31T12:26:38.266Z,69.40
2022-12-31T12:29:22.143Z,69.50
2022-12-31T12:32:02.629Z,69.80
2022-12-31T12:34:39.475Z,69.80
2022-12-31T12:37:37.170Z,69.60
2022-12-31T12:40:04.989Z,69.40
2022-12-31T12:42:32.349Z,69.20
2022-12-31T12:45:10.678Z,68.90
2022-12-31T12:47:37.544Z,68.90
2022-12-31T12:50:06.495Z,68.90
2022-12-31T12:52:56.378Z,69.10
2022-12-31T12:55:54.369Z,69.00
2022-12-31T12:58:36.182Z,69.10
2022-12-31T13:01:22.797Z,68.90
2022-12-31T13:07:13.727Z,68.90
2022-12-31T13:09:54.530Z,68.90
2022-12-31T13:12:28.149Z,69.00
2022-12-31T13:15:12.851Z,70.00
2022-12-31T13:18:02.066Z,69.60
2022-12-31T13:20:38.318Z,69.50
2022-12-31T13:23:42.437Z,69.40
2022-12-31T13:26:24.808Z,69.40
2022-12-31T13:28:54.085Z,68.70
2022-12-31T13:31:33.756Z,68.40
2022-12-31T13:34:06.052Z,68.00
2022-12-31T13:36:37.879Z,68.10
2022-12-31T13:39:19.081Z,68.00
2022-12-31T13:41:53.801Z,67.80
2022-12-31T13:44:23.346Z,67.80
2022-12-31T13:47:13.142Z,67.70
2022-12-31T13:50:01.090Z,67.80
2022-12-31T13:52:40.068Z,68.10
2022-12-31T13:55:25.686Z,68.10
2022-12-31T13:58:01.094Z,68.30
2022-12-31T14:00:55.082Z,68.40
2022-12-31T14:03:39.969Z,68.50
2022-12-31T14:06:22.563Z,68.50
2022-12-31T14:08:49.630Z,68.50
2022-12-31T14:11:41.594Z,68.50
2022-12-31T14:14:29.064Z,68.60
2022-12-31T14:17:10.410Z,68.60
2022-12-31T14:19:55.828Z,68.60
2022-12-31T14:22:28.693Z,68.70
2022-12-31T14:24:59.266Z,68.50
2022-12-31T14:27:34.757Z,68.50
2022-12-31T14:30:06.935Z,68.40
2022-12-31T14:32:51.777Z,68.50
2022-12-31T14:35:46.945Z,68.50
2022-12-31T14:38:24.079Z,68.80
2022-12-31T14:41:35.465Z,68.90
2022-12-31T14:44:36.126Z,68.90
2022-12-31T14:47:36.942Z,69.00
2022-12-31T14:50:26.920Z,69.00
2022-12-31T14:52:59.940Z,69.10
2022-12-31T14:55:34.875Z,69.10
2022-12-31T15:00:57.592Z,69.20
2022-12-31T15:03:34.655Z,69.20
2022-12-31T15:06:22.692Z,69.00
2022-12-31T15:09:17.221Z,68.90
2022-12-31T15:12:11.245Z,69.00
2022-12-31T15:14:53.239Z,68.80
2022-12-31T15:17:57.247Z,68.90
2022-12-31T15:20:42.275Z,69.00
2022-12-31T15:23:25.804Z,69.10
2022-12-31T15:25:59.950Z,69.10
2022-12-31T15:28:33.761Z,68.90
2022-12-31T15:31:03.667Z,68.90
2022-12-31T15:33:53.463Z,68.90
2022-12-31T15:36:23.482Z,69.10
2022-12-31T15:38:51.632Z,69.10
2022-12-31T15:41:55.888Z,69.20
2022-12-31T15:44:36.494Z,69.10
2022-12-31T15:47:29.583Z,69.10
2022-12-31T15:49:59.912Z,69.50
2022-12-31T15:52:42.283Z,69.50
2022-12-31T15:55:19.985Z,69.30
2022-12-31T15:57:47.369Z,69.40
2022-12-31T16:00:20.143Z,69.50
2022-12-31T16:02:50.776Z,69.60
2022-12-31T16:05:27.009Z,69.60
2022-12-31T16:07:58.360Z,69.60
2022-12-31T16:10:31.047Z,69.50
2022-12-31T16:12:59.127Z,69.70
2022-12-31T16:15:29.533Z,69.80
2022-12-31T16:18:05.416Z,69.60
2022-12-31T16:20:33.835Z,69.80
2022-12-31T16:23:03.212Z,69.80
2022-12-31T16:25:33.481Z,69.90
2022-12-31T16:28:02.989Z,69.90
2022-12-31T16:30:32.599Z,69.00
2022-12-31T16:33:05.708Z,69.10
2022-12-31T16:35:36.396Z,69.30
2022-12-31T16:38:03.676Z,69.30
2022-12-31T16:40:30.649Z,68.60
2022-12-31T16:42:57.613Z,68.90
2022-12-31T16:45:33.793Z,69.10
2022-12-31T16:48:17.480Z,69.40
2022-12-31T16:50:46.938Z,69.50
2022-12-31T16:53:20.448Z,69.60
2022-12-31T16:56:00.387Z,69.70
2022-12-31T16:58:37.437Z,69.70
2022-12-31T17:01:16.131Z,69.70
2022-12-31T17:03:46.948Z,69.80
2022-12-31T17:06:18.899Z,69.80
2022-12-31T17:09:00.907Z,69.90
2022-12-31T17:11:30.825Z,70.10
2022-12-31T17:14:07.252Z,70.30
2022-12-31T17:16:36.429Z,70.40
2022-12-31T17:19:04.034Z,70.40
2022-12-31T17:21:32.360Z,70.60
2022-12-31T17:24:05.610Z,70.70
2022-12-31T17:26:37.941Z,70.90
2022-12-31T17:29:06.038Z,70.90
2022-12-31T17:31:36.508Z,71.00
2022-12-31T17:34:12.581Z,71.20
2022-12-31T17:36:52.175Z,71.20
2022-12-31T17:39:22.353Z,71.10
2022-12-31T17:41:51.933Z,71.10
2022-12-31T17:44:22.388Z,71.10
2022-12-31T17:46:50.391Z,71.00
2022-12-31T17:49:19.296Z,71.00
2022-12-31T17:51:47.944Z,71.10
2022-12-31T17:54:18.870Z,71.10
2022-12-31T17:56:45.839Z,71.20
2022-12-31T17:59:23.314Z,71.10
2022-12-31T18:01:50.224Z,71.00
2022-12-31T18:04:19.134Z,71.00
2022-12-31T18:06:46.148Z,70.90
2022-12-31T18:09:12.996Z,70.80
2022-12-31T18:11:41.247Z,70.90
2022-12-31T18:14:08.335Z,71.00
2022-12-31T18:16:35.262Z,70.90
2022-12-31T18:19:02.432Z,70.80
2022-12-31T18:21:34.719Z,70.80
2022-12-31T18:24:05.463Z,70.80
2022-12-31T18:26:35.051Z,70.90
2022-12-31T18:29:17.474Z,70.70
2022-12-31T18:31:49.041Z,70.90
2022-12-31T18:34:17.588Z,70.90
2022-12-31T18:36:44.899Z,70.90
2022-12-31T18:39:11.755Z,71.00
2022-12-31T18:41:49.492Z,71.10
2022-12-31T18:44:16.946Z,71.00
2022-12-31T18:46:43.803Z,70.90
2022-12-31T18:49:10.680Z,71.00
2022-12-31T18:51:37.585Z,71.10
2022-12-31T18:54:04.941Z,71.20
2022-12-31T18:56:32.138Z,71.30
2022-12-31T18:58:59.938Z,71.30
2022-12-31T19:01:35.401Z,71.30
2022-12-31T19:04:27.580Z,71.50
2022-12-31T19:06:55.442Z,71.60
2022-12-31T19:12:12.939Z,71.50
2022-12-31T19:14:39.886Z,71.60
2022-12-31T19:17:12.558Z,71.70
2022-12-31T19:19:39.664Z,71.70
2022-12-31T19:22:06.480Z,71.70
2022-12-31T19:24:33.312Z,71.50
2022-12-31T19:27:01.441Z,71.60
2022-12-31T19:29:28.624Z,71.50
2022-12-31T19:31:55.569Z,71.50
2022-12-31T19:34:22.483Z,71.60
2022-12-31T19:36:49.316Z,71.70
2022-12-31T19:39:19.255Z,71.60
2022-12-31T19:41:51.457Z,71.70
2022-12-31T19:44:23.234Z,71.60
2022-12-31T19:46:50.137Z,71.60
2022-12-31T19:49:17.003Z,71.40
2022-12-31T19:51:43.865Z,71.30
2022-12-31T19:54:13.442Z,71.10
2022-12-31T19:56:40.444Z,70.80
2022-12-31T19:59:09.578Z,70.60
2022-12-31T20:01:36.553Z,70.10
2022-12-31T20:04:03.749Z,70.10
2022-12-31T20:06:30.598Z,69.90
2022-12-31T20:08:57.481Z,70.20
2022-12-31T20:11:24.759Z,70.10
2022-12-31T20:13:53.931Z,70.10
2022-12-31T20:16:23.792Z,70.20
2022-12-31T20:18:50.891Z,70.10
2022-12-31T20:21:23.281Z,70.20
2022-12-31T20:23:51.524Z,70.20
2022-12-31T20:26:19.309Z,70.30
2022-12-31T20:28:46.501Z,70.40
2022-12-31T20:31:18.657Z,70.30
2022-12-31T20:33:45.730Z,70.30
2022-12-31T20:36:15.191Z,70.70
2022-12-31T20:38:42.117Z,70.40
2022-12-31T20:41:17.521Z,70.50
2022-12-31T20:43:45.395Z,70.50
2022-12-31T20:46:24.865Z,70.40
2022-12-31T20:48:55.454Z,71.10
2022-12-31T20:51:23.146Z,70.40
2022-12-31T20:53:55.986Z,70.50
2022-12-31T20:56:23.998Z,70.60
2022-12-31T20:58:50.902Z,70.70
2022-12-31T21:01:18.652Z,70.80
2022-12-31T21:04:04.808Z,70.90
2022-12-31T21:06:33.614Z,71.10
2022-12-31T21:09:02.328Z,71.30
2022-12-31T21:11:47.845Z,71.10
2022-12-31T21:14:14.884Z,71.30
2022-12-31T21:16:41.737Z,71.30
2022-12-31T21:19:09.956Z,71.30
2022-12-31T21:21:37.519Z,71.30
2022-12-31T21:24:04.740Z,71.40
2022-12-31T21:26:31.751Z,71.50
2022-12-31T21:28:59.003Z,71.40
2022-12-31T21:31:25.982Z,71.50
2022-12-31T21:33:53.393Z,71.50
2022-12-31T21:36:20.297Z,71.60
2022-12-31T21:38:47.150Z,71.50
2022-12-31T21:41:34.062Z,71.60
2022-12-31T21:44:02.580Z,71.60
2022-12-31T21:46:29.699Z,71.60
2022-12-31T21:48:58.317Z,71.50
2022-12-31T21:51:25.687Z,71.70
2022-12-31T21:53:52.924Z,72.10
2022-12-31T21:56:21.371Z,71.60
2022-12-31T21:59:17.273Z,71.50
2022-12-31T22:02:03.085Z,71.30
2022-12-31T22:07:17.472Z,71.00
2022-12-31T22:09:44.356Z,70.70
2022-12-31T22:12:11.549Z,70.60
2022-12-31T22:14:38.438Z,70.50
2022-12-31T22:17:05.337Z,70.40
2022-12-31T22:19:39.302Z,70.30
2022-12-31T22:22:19.010Z,70.00
2022-12-31T22:24:45.867Z,69.70
2022-12-31T22:27:28.874Z,69.00
2022-12-31T22:29:56.686Z,68.80
2022-12-31T22:32:23.511Z,68.50
2022-12-31T22:34:50.320Z,68.50
2022-12-31T22:37:46.464Z,68.50
2022-12-31T22:40:04.940Z,68.90
2022-12-31T22:42:31.841Z,69.20
2022-12-31T22:44:58.651Z,69.10
2022-12-31T22:47:25.506Z,69.30
2022-12-31T22:49:52.426Z,69.50
2022-12-31T22:52:19.250Z,69.60
2022-12-31T22:54:46.051Z,69.70
2022-12-31T22:57:19.654Z,69.80
2022-12-31T22:59:46.997Z,69.80
2022-12-31T23:02:13.944Z,70.00
2022-12-31T23:04:40.757Z,70.00
2022-12-31T23:07:07.646Z,70.10
2022-12-31T23:09:53.026Z,69.90
2022-12-31T23:12:19.896Z,69.70
2022-12-31T23:15:05.267Z,69.50
2022-12-31T23:17:50.708Z,69.20
2022-12-31T23:20:38.651Z,68.80
2022-12-31T23:23:09.260Z,68.90
2022-12-31T23:25:46.407Z,68.40
2022-12-31T23:28:18.069Z,68.50
2022-12-31T23:30:45.405Z,68.60
2022-12-31T23:33:18.526Z,69.00
2022-12-31T23:35:45.761Z,68.80
2022-12-31T23:38:13.470Z,68.70
2022-12-31T23:40:40.838Z,68.70
2022-12-31T23:43:10.087Z,69.00
2022-12-31T23:45:37.171Z,69.10
2022-12-31T23:48:04.358Z,69.10
2022-12-31T23:50:31.230Z,69.00
2022-12-31T23:52:58.028Z,68.90
2022-12-31T23:55:24.911Z,68.90
2022-12-31T23:57:51.768Z,69.00
